x

8454000 - Providence, Ri (foxr1) Weather Station

3:54 - Sun 25th Jun 2017 All times are EDT. -4 hours from GMT.

  • Wind
    16mph, 22mph gusts
  • Sea Temp 70°f
  • Aire Temp 83°f
  • Sea Pressure 1010.8mb
  • 8454000 - Providence, Ri
  • 8454000 - Providence, Ri

More Historic Weather Station data

Upgrade to MSW Pro to gain access to the past 30 days of data for over 8000 Wavebouys and Weather Stations around the globe.

Join Pro

Comparision Forecast

View Surf forecast
   
dom 06/25 3:54 16 22 mph 1010.8mb 70f 83f
3:48 9 16 mph 1010.8mb 71f 84f
3:42 1 7 mph 1010.9mb 71f 82f
3:36 5 15 mph 1010.9mb 71f 84f
3:30 13 17 mph 1011mb 71f 79f
3:24 16 22 mph 1011.1mb 71f 78f
3:18 13 18 mph 1011.3mb 71f 79f
3:12 15 23 mph 1011.3mb 71f 78f
3:06 13 21 mph 1011.5mb 71f 78f
3:00 16 23 mph 1011.5mb 71f 78f
2:54 20 24 mph 1011.6mb 71f 77f
2:48 22 25 mph 1011.7mb 71f 77f
2:42 23 26 mph 1011.7mb 71f 77f
2:36 20 26 mph 1011.8mb 71f 76f
2:30 21 25 mph 1011.8mb 71f 77f
2:24 18 23 mph 1012mb 70f 77f
2:18 20 24 mph 1012mb 70f 78f
2:12 21 24 mph 1012.1mb 70f 77f
2:06 20 23 mph 1012.1mb 70f 77f
2:00 16 24 mph 1012.2mb 70f 77f
1:54 15 21 mph 1012.3mb 70f 78f
1:48 11 20 mph 1012.3mb 70f 80f
1:42 14 17 mph 1012.3mb 70f 78f
1:36 11 15 mph 1012.5mb 70f 79f
1:30 9 13 mph 1012.5mb 70f 83f
1:24 11 16 mph 1012.5mb 70f 83f
1:18 5 10 mph 1012.5mb 69f 84f
1:12 6 13 mph 1012.6mb 69f 83f
1:06 11 16 mph 1012.6mb 69f 84f
1:00 9 15 mph 1012.7mb 69f 84f
12:54 8 14 mph 1012.7mb 69f 82f
12:48 9 15 mph 1012.8mb 69f 82f
12:42 10 17 mph 1012.9mb 69f 82f
12:36 9 14 mph 1012.9mb 69f 82f
12:30 5 13 mph 1012.9mb 69f 82f
12:24 11 17 mph 1013mb 69f 82f
12:18 8 10 mph 1012.9mb 69f 82f
12:12 6 14 mph 1013mb 68f 81f
12:06 13 16 mph 1013mb 68f 81f
12:00 13 15 mph 1013mb 68f 81f
11:54 9 15 mph 1013.2mb 68f 81f
11:48 8 10 mph 1013.2mb 68f 82f
11:42 2 9 mph 1013.2mb 68f 81f
11:36 9 14 mph 1013.3mb 68f 80f
11:30 13 15 mph 1013.3mb 68f 80f
11:24 5 7 mph 1013.3mb 68f 81f
11:18 7 9 mph 1013.4mb 68f 80f
11:12 1 6 mph 1013.3mb 68f 80f
11:06 5 13 mph 1013.4mb 68f 79f
11:00 7 13 mph 1013.4mb 68f 80f
10:54 8 15 mph 1013.5mb 68f 79f
10:48 6 15 mph 1013.5mb 68f 80f
10:42 5 10 mph 1013.5mb 68f 79f
10:36 2 13 mph 1013.6mb 68f 79f
10:30 13 17 mph 1013.6mb 68f 79f
10:24 8 13 mph 1013.6mb 68f 80f
10:18 7 13 mph 1013.7mb 68f 78f
10:12 9 11 mph 1013.7mb 68f 78f
10:06 8 13 mph 1013.8mb 68f 78f
10:00 8 13 mph 1013.8mb 68f 78f
9:54 8 13 mph 1013.8mb 68f 78f
9:48 6 11 mph 1013.8mb 68f 78f
9:42 8 13 mph 1013.8mb 68f 78f
9:36 7 10 mph 1013.7mb 67f 78f
9:30 7 10 mph 1013.7mb 67f 76f
9:24 5 7 mph 1013.8mb 67f 76f
9:18 5 7 mph 1013.8mb 67f 76f
9:12 6 9 mph 1013.8mb 67f 76f
9:06 3 7 mph 1013.8mb 67f 75f
9:00 2 9 mph 1013.8mb 67f 75f
8:54 3 6 mph 1013.9mb 67f 75f
8:48 3 10 mph 1013.9mb 67f 74f
8:42 5 8 mph 1013.9mb 67f 74f
8:36 5 9 mph 1014mb 67f 73f
8:30 6 8 mph 1013.9mb 67f 74f
8:24 2 9 mph 1013.9mb 67f 74f
8:18 5 6 mph 1013.9mb 67f 73f
8:12 5 8 mph 1013.9mb 67f 73f
8:06 8 9 mph 1013.9mb 67f 73f
8:00 7 9 mph 1013.9mb 68f 73f
7:54 6 10 mph 1013.8mb 68f 73f
7:48 5 10 mph 1013.7mb 68f 72f
7:42 3 6 mph 1013.6mb 68f 72f
7:36 5 8 mph 1013.7mb 68f 72f
7:30 7 9 mph 1013.7mb 67f 71f
7:24 8 10 mph 1013.6mb 67f 71f
7:18 9 11 mph 1013.5mb 67f 71f
7:12 6 8 mph 1013.4mb 68f 70f
7:06 6 8 mph 1013.4mb 68f 70f
7:00 7 9 mph 1013.4mb 68f 70f
6:54 7 9 mph 1013.3mb 67f 70f
6:48 6 9 mph 1013.3mb 67f 70f
6:42 6 9 mph 1013.3mb 67f 69f
6:36 5 8 mph 1013.1mb 67f 70f
6:30 3 6 mph 1013mb 67f 70f
6:24 2 6 mph 1013mb 68f 69f
6:18  -  2 mph 1012.8mb 68f 69f
6:12 2 2 mph 1012.8mb 68f 69f
6:06  -  2 mph 1012.7mb 69f 69f
6:00 1 2 mph 1012.6mb 69f 68f
5:54 2 3 mph 1012.6mb 69f 68f
5:48 2 3 mph - - -
5:42 3 5 mph 1012.4mb 70f 68f
5:36 3 5 mph 1012.3mb 70f 68f
5:30 2 5 mph 1012.4mb 70f 68f
5:24 2 5 mph 1012.4mb 70f 68f
5:18 2 3 mph 1012.3mb 70f 68f
5:12 2 5 mph 1012.3mb 70f 68f
5:06 3 5 mph 1012.3mb 70f 68f
5:00 3 3 mph 1012.2mb 70f 68f
4:54 2 3 mph 1012.1mb 70f 68f
4:48 2 5 mph - - -
4:42 1 2 mph 1011.8mb 70f 68f
4:36 2 2 mph 1011.7mb 70f 68f
4:30  -  2 mph 1011.7mb 70f 68f
4:24 1 3 mph 1011.7mb 70f 68f
4:18 2 7 mph 1011.6mb 70f 68f
4:12 5 8 mph 1011.6mb 70f 68f
4:06 5 7 mph 1011.5mb 70f 69f
4:00 3 6 mph 1011.4mb 70f 69f
3:54 6 7 mph 1011.2mb 71f 69f
3:48 5 6 mph 1011.2mb 71f 69f
3:42 6 8 mph 1010.9mb 71f 69f
3:36 5 6 mph 1010.9mb 71f 70f
3:30 3 7 mph 1010.9mb 71f 70f
3:24 5 8 mph 1010.9mb 71f 70f
3:18 7 10 mph - - -
3:12 8 9 mph 1011mb 71f 70f
3:06 6 9 mph 1011mb 71f 70f
3:00 6 13 mph 1011.1mb 71f 70f
2:54 8 11 mph 1011.1mb 71f 70f
2:48 9 11 mph 1011.2mb 71f 70f
2:42 7 9 mph 1011.2mb 71f -
2:36 6 9 mph 1011.1mb 70f -
2:30 7 10 mph 1011.2mb 70f 71f
2:24 9 11 mph 1011.2mb 70f 71f
2:18 6 13 mph 1011.2mb 70f 71f
2:12 10 14 mph 1011.2mb 70f 71f
2:06 9 13 mph 1011.1mb 70f 71f
2:00 6 11 mph 1011.1mb 70f 71f
1:54 7 10 mph 1011mb 70f 71f
1:48 6 8 mph 1011.1mb 70f 71f
1:42 5 7 mph 1011.1mb - -
1:36 5 10 mph 1011.2mb - -
1:30 9 13 mph 1011.2mb 70f 70f
1:24 6 10 mph 1011.1mb 70f 71f
1:18 6 8 mph 1011.1mb 70f 71f
1:12 5 8 mph 1011mb 70f 71f
1:06 5 7 mph 1011mb 69f 72f
1:00 3 8 mph 1010.9mb 69f 71f
12:54 8 13 mph 1010.8mb 69f 71f
12:48 8 11 mph 1010.8mb 69f 72f
12:42 6 7 mph 1010.3mb 69f 72f
12:36  -  1 mph 1010.3mb 69f 72f
12:30 1 5 mph 1010.3mb 68f 72f
12:24 3 3 mph 1010.3mb 68f 72f
12:18  -  1 mph 1010.4mb 68f 72f
12:12 1 2 mph 1010.4mb 68f 72f
12:06 1 3 mph 1010.4mb 68f 72f
12:00 2 3 mph 1010.5mb 68f 72f
sáb 06/24 11:54 1 3 mph 1010.5mb 68f 73f
11:48 2 3 mph - - -
11:42  -  2 mph 1010.5mb 68f 73f
11:36 1 3 mph 1010.4mb 67f 73f
11:30 2 5 mph 1010.4mb 67f 73f
11:24 2 3 mph 1010.4mb 67f 73f
11:18 2 3 mph 1010.2mb 67f 73f
11:12 2 3 mph 1010.2mb 67f 73f
11:06  -  2 mph 1010.2mb 67f 73f
11:00  -  2 mph 1010.1mb 67f 73f
10:54 1 3 mph 1010.1mb 67f 74f
10:48 2 3 mph - - -
10:42 1 2 mph 1010mb 67f 74f
10:36 2 5 mph 1009.8mb 67f 75f
10:30 2 5 mph 1009.8mb 67f 75f
10:24 3 6 mph 1009.7mb 67f 75f
10:18 3 6 mph - - -
10:12 3 6 mph 1009.6mb 67f 76f
10:06 5 6 mph 1009.6mb 67f 76f
10:00 3 6 mph 1009.5mb 67f 77f
9:54 3 7 mph 1009.4mb 67f 77f
9:48 5 6 mph 1009.3mb 67f 77f
9:42 5 8 mph 1009.1mb 67f 77f
9:36 6 8 mph 1009.1mb 67f 77f
9:30 3 6 mph 1009mb 67f 78f
9:24 5 6 mph 1008.8mb 68f 78f
9:18 5 7 mph 1008.5mb - -
9:12 5 7 mph 1008.5mb 68f 78f
9:06 6 8 mph 1008.5mb 68f 78f
9:00 5 9 mph 1008.3mb 68f 79f
8:54 6 8 mph 1008.1mb 68f 79f
8:48 6 10 mph 1008.1mb 68f 79f
8:42 7 11 mph 1007.9mb 68f 79f
8:36 6 11 mph 1007.8mb 68f 80f
8:30 7 10 mph 1007.6mb 68f 80f
8:24 6 10 mph 1007.7mb 69f 80f
8:18 8 11 mph 1007.6mb 69f 80f
8:12 10 16 mph 1007.6mb 69f 81f
8:06 10 15 mph 1007.4mb 69f 81f
8:00 10 18 mph 1007.2mb 69f 81f
7:54 6 10 mph 1007.2mb 69f 82f
7:48 7 15 mph 1007.1mb - -
7:42 7 13 mph 1007mb 69f 82f
7:36 10 16 mph 1006.9mb 69f 82f
7:30 11 16 mph 1006.9mb 69f 82f
7:24 13 18 mph 1006.8mb 69f 82f
7:18 8 17 mph 1006.8mb 69f 83f
7:12 13 18 mph 1006.6mb 69f 83f
7:06 9 17 mph 1006.6mb 69f 83f
7:00 10 16 mph 1006.3mb 69f 83f
6:54 10 15 mph 1006.2mb 69f 83f
6:48 10 20 mph 1006.1mb 69f 84f
6:42 13 18 mph 1006mb 69f 84f
6:36 7 20 mph 1005.8mb 69f 84f
6:30 7 16 mph 1005.7mb 69f 84f
6:24 13 17 mph 1005.8mb 69f 83f
6:18 13 21 mph 1005.5mb 69f 84f
6:12 14 22 mph 1005.4mb 69f 84f
6:06 16 22 mph 1005.2mb 69f 84f
6:00 18 24 mph 1005.2mb 69f 84f
5:54 13 20 mph 1005.1mb 69f 85f
5:48 16 23 mph 1005mb 69f 85f
5:42 11 18 mph 1004.9mb 69f 85f
5:36 10 20 mph 1004.7mb 69f 85f
5:30 20 25 mph 1004.7mb 70f 85f
5:24 13 26 mph 1004.7mb 69f 86f
5:18 16 24 mph 1004.6mb 69f 86f
5:12 13 21 mph 1004.5mb 69f 86f
5:06 11 23 mph 1004.5mb 69f 86f
5:00 15 20 mph 1004.4mb 69f 86f
4:54 11 17 mph 1004.4mb 69f 86f
4:48 13 20 mph 1004.2mb 69f 86f
4:42 15 22 mph 1004.1mb 69f 86f
4:36 16 25 mph 1004.1mb 69f 86f
4:30 13 23 mph 1004mb 69f 87f
4:24 11 24 mph 1003.8mb 69f 86f
4:18 11 22 mph 1003.7mb 69f 86f
4:12 14 20 mph 1003.6mb 69f 86f
4:06 14 20 mph 1003.6mb 69f 85f
4:00 15 21 mph 1003.4mb 69f 85f
3:54 15 23 mph 1003.3mb 69f 85f
3:48 17 22 mph 1003.2mb 69f 86f
3:42 11 21 mph 1003.1mb 69f 86f
3:36 9 25 mph 1003.1mb 70f 86f
3:30 18 26 mph 1003mb 70f 86f
3:24 13 23 mph 1002.9mb 70f 86f
3:18 15 22 mph 1002.8mb 71f 85f
3:12 14 24 mph 1002.7mb 71f 85f
3:06 16 23 mph 1002.5mb 72f 85f
3:00 17 22 mph 1002.5mb 72f 85f
2:54 17 28 mph 1002.4mb 72f 85f
2:48 17 26 mph 1002.3mb 72f 85f
2:42 17 24 mph 1002.2mb 72f 85f
2:36 18 25 mph 1002.1mb 72f 84f
2:30 18 25 mph 1002.1mb 72f 84f
2:24 17 26 mph 1002.1mb 72f 83f
2:18 17 22 mph 1002.1mb 72f 83f
2:12 20 25 mph 1002mb 72f 83f
2:06 16 25 mph 1002mb 72f 82f
2:00 20 24 mph 1001.9mb 72f 83f
1:54 9 18 mph 1001.8mb 72f 83f
1:48 8 21 mph 1001.8mb 72f 82f
1:42 13 21 mph 1001.8mb 72f 82f
1:36 7 10 mph 1001.8mb 72f 82f
1:30 8 13 mph 1001.6mb 72f 81f
1:24 9 11 mph 1001.4mb 72f 80f
1:18 8 11 mph 1001.4mb 72f 79f
1:12 8 10 mph 1001.3mb 72f 79f
1:06 6 8 mph 1001.1mb 72f 78f
1:00 3 7 mph 1001mb 72f 77f
12:54 5 7 mph 1001mb 72f 76f
12:48 7 10 mph 1001mb 72f 76f
12:42 9 15 mph 1001.2mb 72f 76f
12:36 15 22 mph 1001.4mb 72f 76f
12:30 7 11 mph 1001.1mb 72f 80f
12:24 8 15 mph 1001mb 72f 80f
12:18 7 13 mph 1000.9mb 72f 79f
12:12 10 15 mph 1000.9mb 72f 78f
12:06 8 16 mph 1001mb 72f 78f
12:00 10 14 mph 1001mb 72f 78f
11:54 11 15 mph 1001.1mb 72f 77f
11:48 6 11 mph 1001mb 72f 77f
11:42 6 9 mph 1001mb 72f 76f
11:36 3 8 mph 1000.9mb 72f 76f
11:30 6 9 mph 1000.9mb 72f 75f
11:24 3 8 mph 1000.9mb 72f 75f
11:18 5 10 mph 1000.9mb 72f 74f
11:12 5 8 mph 1000.8mb 72f 73f
11:06 5 8 mph 1000.9mb 72f 73f
11:00 6 9 mph 1000.7mb 72f 72f
10:54 6 9 mph 1000.8mb 72f 72f
10:48 6 9 mph 1000.8mb 72f 72f
10:42 7 10 mph 1000.8mb 71f 72f
10:36 7 9 mph 1000.9mb 71f 72f
10:30 6 7 mph 1000.9mb 71f 72f
10:24 6 8 mph 1000.9mb 71f 72f
10:18 7 9 mph - - -
10:12 6 6 mph 1000.8mb 71f 72f
10:06 5 6 mph 1000.6mb 71f 72f
10:00 2 3 mph 1000.3mb 71f 72f
9:54  -  2 mph 1000.3mb 71f 72f
9:48 3 5 mph 1000.3mb 71f 72f
9:42 2 5 mph 1000.4mb 71f 72f
9:36 3 5 mph 1000.6mb 71f 72f
9:30 5 6 mph 1000.8mb 70f 72f
9:24 5 8 mph 1001mb 70f 72f
9:18 6 8 mph 1001mb 70f 73f
9:12 5 6 mph 1000.9mb 70f 73f
9:06 7 8 mph 1000.9mb 70f 73f
9:00 3 7 mph 1001mb 70f 73f
8:54 5 6 mph 1001mb 70f 73f
8:48 3 6 mph 1001mb 70f 73f
8:42 7 11 mph 1001.4mb 70f 73f
8:36 9 13 mph 1001.4mb 70f 74f
8:30 7 11 mph 1001.3mb 70f 74f
8:24 9 13 mph 1001.3mb 70f 74f
8:18 7 11 mph 1001.1mb 70f 75f
8:12 7 14 mph 1000.8mb 70f 75f
8:06 8 10 mph 1000.5mb 70f 75f
8:00 5 14 mph 1000.5mb 70f 75f
7:54 13 16 mph 1000.6mb 69f 75f
7:48 9 14 mph - - -
7:42 8 16 mph 1000.3mb 69f 76f
7:36 10 17 mph 1000.3mb 69f 76f
7:30 9 13 mph 1000.4mb 69f 76f
7:24 13 16 mph 1000.4mb 69f 76f
7:18 11 16 mph 1000.3mb 69f 76f
7:12 8 14 mph 1000.3mb 69f 76f
7:06 8 14 mph 1000.3mb 69f 76f
7:00 10 14 mph 1000.5mb 69f 76f
6:54 7 10 mph 1000.5mb 69f 76f
6:48 6 10 mph 1000.5mb 69f 76f
6:42 6 10 mph 1000.5mb 69f 76f
6:36 5 9 mph 1000.5mb 69f 76f
6:30 7 10 mph 1000.4mb 69f 76f
6:24 6 9 mph 1000.4mb 69f 76f
6:18 7 11 mph 1000.4mb 69f 76f
6:12 6 9 mph 1000.2mb 69f 76f
6:06 6 10 mph 1000.2mb 69f 76f
6:00 6 9 mph 1000.3mb 69f 76f
5:54 7 9 mph 1000.3mb 69f 76f
5:48 6 10 mph 1000.4mb 69f 75f
5:42 6 11 mph 1000.4mb 69f 75f
5:36 7 10 mph 1000.4mb 69f 75f
5:30 6 13 mph 1000.4mb 69f 75f
5:24 7 10 mph 1000.5mb 69f 75f
5:18 7 9 mph 1000.5mb 70f 75f
5:12 5 8 mph 1000.4mb 70f 74f
5:06 6 8 mph 1000.4mb 70f 73f
5:00 6 8 mph 1000.4mb 71f 72f
4:54 7 10 mph 1000.3mb 71f 72f
4:48 8 10 mph - - -
4:42 9 13 mph 1000.3mb 71f 72f
4:36 11 16 mph 1000.3mb 72f 72f
4:30 14 17 mph 1000.3mb 72f 71f
4:24 14 21 mph 1000.1mb 72f 71f
4:18 13 18 mph 1000.2mb 72f 71f
4:12 15 18 mph 1000.2mb 72f 71f
4:06 15 18 mph 1000.2mb 72f 72f
4:00 13 14 mph 1000.1mb 72f 72f
3:54 10 13 mph 1000.3mb 72f 72f
3:48 10 14 mph 1000.4mb 72f 73f
3:42 8 14 mph 1000.4mb 72f 75f
3:36 8 13 mph 1000.5mb 72f 75f
3:30 7 11 mph 1000.4mb 72f 75f
3:24 8 11 mph 1000.4mb 72f 75f
3:18 8 11 mph - - -
3:12 6 11 mph 1000.6mb 72f 75f
3:06 9 14 mph 1000.6mb 72f 75f
3:00 9 14 mph 1000.7mb 72f 75f
2:54 8 14 mph 1000.7mb 72f 75f
2:48 7 11 mph 1000.8mb 72f 75f
2:42 7 9 mph 1000.7mb 72f 75f
2:36 9 11 mph 1000.8mb 72f 75f
2:30 6 11 mph 1000.7mb 72f 75f
2:24 9 13 mph 1000.8mb 72f 75f
2:18 8 11 mph 1000.9mb 72f 75f
2:12 8 14 mph 1001mb 72f 75f
2:06 8 13 mph 1001.2mb 72f 75f
2:00 10 15 mph 1001.3mb 72f 75f
1:54 8 10 mph 1001.4mb 72f 75f
1:48 8 14 mph - - -
1:42 7 10 mph 1001.4mb 72f 75f
1:36 6 11 mph 1001.5mb 72f 75f
1:30 9 13 mph 1001.5mb 72f 75f
1:24 10 14 mph 1001.6mb 72f 75f
1:18 10 15 mph 1001.7mb 72f 75f
1:12 9 13 mph 1001.7mb 72f 75f
1:06 9 16 mph 1001.6mb 72f 75f
1:00 8 13 mph 1001.7mb 72f 75f
12:54 9 15 mph 1001.7mb 72f 75f
12:48 7 15 mph - - -
12:42 9 14 mph 1001.8mb 72f 75f
12:36 10 17 mph 1001.9mb 72f 75f
12:30 7 14 mph 1001.7mb 72f 75f
12:24 6 14 mph 1002mb 72f 75f
12:18 8 11 mph 1002.1mb 72f 75f
12:12 9 13 mph 1002.1mb 72f 75f
12:06 7 14 mph 1002.1mb 72f 75f
12:00 8 11 mph 1002.2mb 72f 75f
vie 06/23 11:54 6 14 mph 1002.4mb 72f 75f
11:48 9 14 mph 1002.6mb 72f 75f
11:42 7 14 mph 1002.6mb 72f 75f
11:36 8 11 mph 1002.6mb 72f 75f
11:30 7 15 mph 1002.7mb 72f 75f
11:24 9 14 mph 1002.6mb 72f 75f
11:18 8 14 mph - - -
11:12 10 15 mph 1002.9mb 72f 75f
11:06 8 13 mph 1002.8mb 72f 75f
11:00 7 13 mph 1002.9mb 72f 75f
10:54 9 14 mph 1002.9mb 72f 75f
10:48 7 14 mph 1002.9mb 72f 75f
10:42 8 13 mph 1003mb 72f 75f
10:36 8 15 mph 1003.1mb 72f 75f
10:30 10 15 mph 1003.2mb 72f 75f
10:24 11 17 mph 1003.2mb 72f 75f
10:18 9 14 mph - - -
10:12 7 17 mph 1003.1mb 72f 74f
10:06 9 20 mph 1003.3mb 72f 74f
10:00 13 16 mph 1003.4mb 72f 74f
9:54 7 15 mph 1003.5mb 72f 75f
9:48 9 16 mph 1003.5mb 72f 75f
9:42 13 17 mph 1003.6mb 72f 75f
9:36 9 13 mph 1003.3mb 72f 75f
9:30 8 15 mph 1003.3mb 71f 75f
9:24 10 14 mph 1003.4mb 71f 75f
9:18 8 15 mph 1003.3mb 71f 75f
9:12 9 15 mph 1003.2mb 71f 75f
9:06 9 18 mph 1003.3mb 71f 75f
9:00 14 17 mph 1003.2mb 71f 75f
8:54 11 15 mph 1003mb 71f 75f
8:48 11 15 mph 1003.2mb - -
8:42 8 15 mph 1003.2mb 71f 75f
8:36 10 15 mph 1003.1mb 71f 75f
8:30 9 15 mph 1003.1mb 71f 75f
8:24 9 17 mph 1003.1mb 71f 75f
8:18 11 15 mph 1003.1mb 71f 75f
8:12 11 18 mph 1003.1mb 71f 75f
8:06 10 16 mph 1003mb 71f 75f
8:00 9 17 mph 1003.1mb 71f 76f
7:54 14 21 mph 1003.2mb 70f 75f
7:48 10 15 mph 1003.2mb - -
7:42 9 17 mph 1003.1mb 70f 76f
7:36 11 17 mph 1003.2mb 70f 75f
7:30 7 10 mph 1003.1mb 70f 75f
7:24 7 14 mph 1003.2mb 70f 75f
7:18 10 20 mph 1003.2mb 70f 75f
7:12 11 18 mph 1003.3mb 69f 75f
7:06 15 21 mph 1003.3mb 69f 75f
7:00 13 18 mph 1003.3mb 69f 75f
6:54 11 14 mph 1003.3mb 69f 75f
6:48 10 21 mph 1003.4mb 69f 75f
6:42 10 15 mph 1003.4mb 69f 75f
6:36 11 20 mph 1003.4mb 69f 75f
6:30 14 20 mph 1003.4mb 69f 75f
6:24 15 21 mph 1003.4mb 69f 76f
6:18 8 20 mph - - -
6:12 15 26 mph 1003.4mb 69f 75f
6:06 17 25 mph 1003.5mb 69f 76f
6:00 15 24 mph 1003.5mb 69f 76f
5:54 16 26 mph 1003.5mb 68f 77f
5:48 20 29 mph 1003.4mb 68f 77f
5:42 22 28 mph 1003.4mb 68f 77f
5:36 13 26 mph 1003.3mb 68f 78f
5:30 18 26 mph 1003.3mb 68f 78f
5:24 16 25 mph 1003.3mb 68f 79f
5:18 16 23 mph 1003.3mb 68f 80f
5:12 14 21 mph 1003.2mb 68f 81f
5:06 13 21 mph 1003.2mb 68f 82f
5:00 18 25 mph 1003.2mb 68f 81f
4:54 13 21 mph 1003.3mb 68f 80f
4:48 15 23 mph 1003.4mb 68f 77f
4:42 20 28 mph 1003.6mb 69f 76f
4:36 22 24 mph 1003.8mb 69f 75f
4:30 20 23 mph 1003.9mb 69f 76f
4:24 18 23 mph 1003.9mb 69f 76f
4:18 20 23 mph 1004mb 69f 76f
4:12 18 23 mph 1004.1mb 69f 76f
4:06 21 24 mph 1004mb 69f 75f
4:00 21 23 mph 1004.1mb 69f 75f
3:54 20 24 mph 1004.2mb 69f 76f
3:48 21 24 mph 1004.3mb 69f 75f
3:42 21 26 mph 1004.5mb 69f 76f
3:36 23 26 mph 1004.4mb 69f 76f
3:30 23 26 mph 1004.5mb 69f 76f
3:24 24 29 mph 1004.6mb 69f 76f
3:18 17 22 mph 1004.6mb 69f 77f
3:12 17 23 mph 1004.6mb 69f 78f
3:06 17 24 mph 1004.7mb 69f 78f
3:00 22 25 mph 1004.9mb 69f 78f
2:54 17 21 mph 1005mb 69f 80f
2:48 13 20 mph 1005.1mb 69f 84f
2:42 16 23 mph 1005.1mb 69f 83f
2:36 20 25 mph 1005.1mb 69f 79f
2:30 20 24 mph 1005mb 70f 79f
2:24 17 22 mph 1005.1mb 70f 79f
2:18 20 24 mph 1005.3mb 71f 79f
2:12 20 23 mph 1005.2mb 71f 79f
2:06 17 23 mph 1005.3mb 71f 83f
2:00 18 23 mph 1005.4mb 71f 81f
1:54 18 23 mph 1005.6mb 71f 85f
1:48 17 22 mph 1005.6mb 71f 81f
1:42 17 23 mph 1005.7mb 71f 80f
1:36 20 23 mph 1005.8mb 71f 80f
1:30 15 23 mph 1005.8mb 71f 81f
1:24 14 24 mph 1005.9mb 71f 86f
1:18 20 26 mph 1006mb 71f 86f
1:12 15 24 mph 1006.1mb 70f 86f
1:06 18 24 mph 1006.2mb 70f 86f
1:00 20 26 mph 1006.4mb 70f 86f
12:54 17 25 mph 1006.5mb 70f 85f
12:48 23 26 mph 1006.5mb 70f 84f
12:42 15 20 mph 1006.6mb 70f 85f
12:36 15 24 mph 1006.6mb 70f 85f
12:30 16 20 mph 1006.6mb 70f 80f
12:24 18 23 mph 1006.6mb 70f 80f
12:18 15 20 mph 1006.6mb 70f 80f
12:12 14 16 mph 1006.8mb 70f 80f
12:06 16 21 mph 1006.9mb 70f 79f
12:00 18 21 mph 1007mb 70f 78f
11:54 17 20 mph 1007.1mb 70f 78f
11:48 15 18 mph 1007.3mb 70f 78f
11:42 16 20 mph 1007.3mb 70f 78f
11:36 14 18 mph 1007.3mb 70f 78f
11:30 15 20 mph 1007.4mb 70f 78f
11:24 14 17 mph 1007.4mb 70f 78f
11:18 14 18 mph 1007.5mb 70f 77f
11:12 14 15 mph 1007.6mb 70f 76f
11:06 15 18 mph 1007.7mb 70f 76f
11:00 15 18 mph 1007.7mb 70f 76f
10:54 14 16 mph 1007.9mb 70f 75f
10:48 11 18 mph 1007.9mb 70f 76f
10:42 15 18 mph 1007.9mb 70f 75f
10:36 13 16 mph 1008.1mb 70f 75f
10:30 13 14 mph 1008.2mb 70f 74f
10:24 8 11 mph 1008.2mb 70f 74f
10:18 8 9 mph 1008.3mb 70f 74f
10:12 7 10 mph 1008.3mb 70f 74f
10:06 8 10 mph 1008.3mb 70f 73f
10:00 8 10 mph 1008.4mb 70f 73f
9:54 8 9 mph 1008.5mb 70f 73f
9:48 9 11 mph 1008.5mb 70f 72f
9:42 9 11 mph 1008.6mb 70f 72f
9:36 9 14 mph 1008.7mb 70f 71f
9:30 13 15 mph 1008.7mb 70f 71f
9:24 11 14 mph 1008.8mb 70f 71f
9:18 10 13 mph 1008.8mb 70f 71f
9:12 10 14 mph 1009mb 70f 70f
9:06 9 11 mph 1009mb 70f 70f
9:00 8 10 mph 1009mb 70f 70f
8:54 8 11 mph 1009mb 70f 70f
8:48 11 14 mph 1009.1mb 70f 69f
8:42 11 13 mph 1009.2mb 70f 69f
8:36 10 13 mph 1009.2mb 70f 69f
8:30 10 13 mph 1009.2mb 70f 69f
8:24 11 15 mph 1009.1mb 70f 69f
8:18 13 14 mph 1009.2mb 70f 69f
8:12 9 14 mph 1009.3mb 70f 69f
8:06 10 13 mph 1009.2mb 70f 69f
8:00 9 13 mph 1009.2mb 69f 69f
7:54 9 11 mph 1009.2mb 68f 69f
7:48 10 11 mph 1009.2mb 68f 69f
7:42 9 13 mph 1009.2mb 68f 69f
7:36 10 11 mph 1009.2mb 68f 69f
7:30 9 11 mph 1009.2mb 68f 69f
7:24 10 11 mph 1009.1mb 68f 69f
7:18 9 14 mph 1009.2mb 68f 69f
7:12 10 11 mph 1009.1mb 68f 69f
7:06 9 11 mph 1009.2mb 68f 69f
7:00 10 11 mph 1009.2mb 68f 69f
6:54 8 11 mph 1009.1mb 68f 69f
6:48 8 10 mph 1009mb 68f 69f
6:42 10 11 mph 1009.1mb 68f 69f
6:36 7 9 mph 1009.1mb 68f 69f
6:30 7 8 mph 1009.1mb 68f 69f
6:24 7 9 mph 1009.3mb 68f 69f
6:18 8 9 mph 1009.2mb 68f 69f
6:12 8 10 mph 1009.2mb 68f 69f
6:06 6 8 mph 1009.2mb 68f 69f
6:00 8 10 mph 1009.2mb 68f 69f
5:54 9 10 mph 1009.2mb 67f 69f
5:48 7 8 mph - - -
5:42 6 8 mph 1009.3mb 67f 69f
5:36 7 7 mph 1009.4mb 67f 69f
5:30 5 8 mph 1009.4mb 67f 69f
5:24 6 9 mph 1009.3mb 67f 68f
5:18 6 9 mph 1009.3mb 67f 68f
5:12 7 9 mph 1009.3mb 67f 69f
5:06 9 10 mph 1009.1mb 67f 68f
5:00 7 9 mph 1009mb 67f 68f
4:54 7 9 mph 1009mb 67f 68f
4:48 7 9 mph 1009.1mb 67f 68f
4:42 7 9 mph 1009.3mb 67f 68f
4:36 7 8 mph 1009.3mb 67f 68f
4:30 6 8 mph 1009.3mb 68f 68f
4:24 7 8 mph 1009.3mb 69f 68f
4:18 5 6 mph 1009.3mb 69f 68f
4:12 5 7 mph 1009.2mb 69f 68f
4:06 6 7 mph 1009.2mb 69f 68f
4:00 6 7 mph 1009.1mb 70f 68f
3:54 7 8 mph 1009.2mb 70f 69f
3:48 7 8 mph 1009.3mb 70f 68f
3:42 7 9 mph 1009.4mb 70f 68f
3:36 7 8 mph 1009.5mb 70f 69f
3:30 7 8 mph 1009.4mb 70f 69f
3:24 7 8 mph 1009.4mb 70f 69f
3:18 7 8 mph 1009.4mb 70f 69f
3:12 6 6 mph 1009.5mb 70f 69f
3:06 5 6 mph 1009.5mb 70f 69f
3:00 6 6 mph 1009.5mb 70f 70f
2:54 5 6 mph 1009.6mb 70f 70f
2:48 5 6 mph 1009.7mb 70f 70f
2:42 5 6 mph 1009.8mb - -
2:36 3 6 mph 1010mb - -
2:30 5 7 mph 1010mb 70f 71f
2:24 5 7 mph 1010.1mb 70f 71f
2:18 5 8 mph 1010.2mb 70f 71f
2:12 6 8 mph 1010.3mb 70f 71f
2:06 6 8 mph 1010.4mb 70f 71f
2:00 5 8 mph 1010.4mb 70f 71f
1:54 6 8 mph 1010.4mb 70f 71f
1:48 6 9 mph 1010.7mb 70f -
1:42 8 10 mph 1010.8mb 70f -
1:36 7 10 mph 1010.8mb 70f -
1:30 6 9 mph 1010.8mb 70f 72f
1:24 3 6 mph 1010.9mb 70f 72f
1:18 3 5 mph 1011.1mb 70f 72f
1:12 3 5 mph 1011.3mb 70f 72f
1:06 5 6 mph 1011.4mb 70f 72f
1:00 6 9 mph 1011.4mb 70f 72f
12:54 7 9 mph 1011.4mb 70f 72f
12:48 7 9 mph 1011.5mb 70f 72f
12:42 3 7 mph 1011.5mb 70f 72f
12:36 5 9 mph 1011.6mb 70f 72f
12:30 8 10 mph 1011.7mb 70f 72f
12:24 7 10 mph 1011.7mb 70f 73f
12:18 6 8 mph - - -
12:12 7 11 mph 1012mb 70f 73f
12:06 6 11 mph 1012.2mb 70f 73f
12:00 7 11 mph 1012.2mb 70f 73f
jue 06/22 11:54 6 8 mph 1012.3mb 70f 73f
11:48 5 8 mph 1012.3mb - -
11:42 6 8 mph 1012.4mb 70f 73f
11:36 5 6 mph 1012.4mb 70f 73f
11:30 6 10 mph 1012.4mb 70f 73f
11:24 8 11 mph 1012.3mb 70f 73f
11:18 5 9 mph 1012.3mb 70f 73f
11:12 6 9 mph 1012.2mb 70f 73f
11:06 6 8 mph 1012.2mb 70f 73f
11:00 6 8 mph 1012.3mb 70f 73f
10:54 5 7 mph 1012.3mb 70f 73f
10:48 8 9 mph - - -
10:42 8 10 mph 1012.3mb 70f 74f
10:36 8 10 mph 1012.4mb 70f 74f
10:30 6 10 mph 1012.4mb 70f 74f
10:24 7 10 mph 1012.4mb 70f 74f
10:18 7 8 mph 1012.4mb - -
10:12 5 8 mph 1012.3mb 70f 74f
10:06 6 8 mph 1012.4mb 70f 75f
10:00 8 11 mph 1012.4mb 70f 75f
9:54 7 10 mph 1012.4mb 70f 75f
9:48 5 8 mph 1012.5mb 70f 75f
9:42 6 11 mph 1012.6mb 70f 75f
9:36 6 13 mph 1012.5mb 70f 75f
9:30 7 11 mph 1012.4mb 70f 75f
9:24 6 15 mph 1012.2mb 70f 75f
9:18 8 13 mph 1012.2mb 69f 75f
9:12 8 16 mph 1012.2mb 69f 75f
9:06 7 15 mph 1012.1mb 69f 76f
9:00 13 18 mph 1012.2mb 69f 75f
8:54 14 17 mph 1012.2mb 69f 76f
8:48 11 17 mph 1012.1mb 69f 76f
8:42 9 14 mph 1012.1mb 69f 76f
8:36 10 14 mph 1012mb 69f 76f
8:30 11 16 mph 1011.9mb 69f 76f
8:24 11 17 mph 1012mb 68f 76f
8:18 13 18 mph 1011.9mb 68f 77f
8:12 11 16 mph 1012mb 68f 77f
8:06 13 18 mph 1011.9mb 68f 77f
8:00 9 16 mph 1012mb 68f 77f
7:54 14 20 mph 1012mb 68f 77f
7:48 10 16 mph 1011.9mb 67f 77f
7:42 11 17 mph 1011.8mb 67f 77f
7:36 10 17 mph 1011.7mb 67f 78f
7:30 11 20 mph 1011.8mb 67f 78f
7:24 15 20 mph 1011.7mb 67f 78f
7:18 16 20 mph 1011.5mb 67f 79f
7:12 10 16 mph 1011.5mb 67f 79f
7:06 10 18 mph 1011.5mb 67f 78f
7:00 14 20 mph 1011.4mb 67f 79f
6:54 13 22 mph 1011.3mb 67f 79f
6:48 16 21 mph 1011.2mb 68f 79f
6:42 15 20 mph 1011.2mb 68f 81f
6:36 13 18 mph 1011.2mb 68f 82f
6:30 10 16 mph 1011.1mb 68f 83f
6:24 11 14 mph 1011mb 68f 82f
6:18 9 16 mph 1011.1mb 68f 84f
6:12 11 14 mph 1011.1mb 68f 84f
6:06 10 15 mph 1011.2mb 68f 85f
6:00 9 15 mph 1011.1mb 68f 85f
5:54 9 14 mph 1011mb 68f 85f
5:48 7 14 mph 1010.9mb 68f 85f
5:42 11 15 mph 1011mb 68f 85f
5:36 14 21 mph 1011.1mb 68f 85f
5:30 15 21 mph 1011.2mb 68f 85f
5:24 14 18 mph 1011.2mb 67f 85f
5:18 8 16 mph 1011.2mb 67f 86f
5:12 11 15 mph 1011.2mb 67f 85f
5:06 8 17 mph 1011.3mb 67f 84f
5:00 10 16 mph 1011.2mb 67f 85f
4:54 10 17 mph 1011.3mb 67f 85f
4:48 10 17 mph 1011.3mb 67f 85f
4:42 6 20 mph 1011.4mb 67f 85f
4:36 14 18 mph 1011.3mb 67f 85f
4:30 14 18 mph 1011.5mb 67f 85f
4:24 14 18 mph 1011.6mb 67f 85f
4:18 7 11 mph 1011.6mb 67f 86f
4:12 9 14 mph 1011.6mb 67f 86f
4:06 7 18 mph 1011.6mb 67f 85f
4:00 6 14 mph 1011.7mb 67f 86f
3:54 3 11 mph 1011.6mb 67f 84f
3:48 7 9 mph 1011.6mb 67f 80f
3:42 5 9 mph 1011.7mb 67f 80f
3:36 8 13 mph 1011.7mb 67f 78f
3:30 7 13 mph 1011.8mb 67f 79f
3:24 9 15 mph 1011.7mb 67f 78f
3:18 11 17 mph 1011.9mb 67f 78f
3:12 15 20 mph 1011.7mb 67f 77f
3:06 17 20 mph 1011.8mb 67f 77f
3:00 15 21 mph 1011.8mb 67f 77f
2:54 17 21 mph 1011.8mb 67f 77f
2:48 16 22 mph 1011.9mb 67f 77f
2:42 16 21 mph 1012.1mb 67f 78f
2:36 14 23 mph 1012.1mb 67f 79f
2:30 11 17 mph 1012.2mb 67f 78f
2:24 10 16 mph 1012.3mb 67f 78f
2:18 9 11 mph 1012.4mb 67f 79f
2:12 3 13 mph 1012.4mb 67f 82f
2:06 9 16 mph 1012.4mb 67f 82f
2:00 9 14 mph 1012.7mb 67f 79f
1:54 5 10 mph 1012.7mb 68f 82f
1:48 7 14 mph 1012.7mb 68f 84f
1:42 11 18 mph 1012.8mb 69f 84f
1:36 9 15 mph 1012.7mb 69f 83f
1:30 6 15 mph 1012.8mb 69f 83f
1:24 9 16 mph 1012.8mb 69f 82f
1:18 8 14 mph 1012.9mb 69f 83f
1:12 5 7 mph 1013mb 69f 83f
1:06 2 10 mph 1013mb 69f 82f
1:00 8 13 mph 1013mb 69f 82f
12:54 6 10 mph 1013mb 69f 82f
12:48 8 14 mph 1013.3mb 69f 81f
12:42 8 13 mph 1013.3mb 69f 81f
12:36 8 14 mph 1013.3mb 69f 81f
12:30 9 14 mph 1013.4mb 69f 81f
12:24 6 8 mph 1013.5mb 69f 79f
12:18 2 5 mph 1013.7mb 69f 77f
12:12 3 6 mph 1013.6mb 69f 76f
12:06 2 8 mph 1013.6mb 69f 78f
12:00 6 11 mph 1013.6mb 69f 79f
11:54 2 9 mph 1013.7mb 69f 77f
11:48 7 13 mph 1013.7mb 69f 75f
11:42 6 10 mph 1013.6mb 69f 75f
11:36 7 10 mph 1013.7mb 69f 75f
11:30 10 14 mph 1013.6mb 69f 74f
11:24 5 8 mph 1013.6mb 69f 75f
11:18 5 9 mph 1013.6mb 69f 75f
11:12 5 9 mph 1013.5mb 69f 78f
11:06 5 9 mph 1013.5mb 69f 78f
11:00 1 8 mph 1013.5mb 68f 76f
10:54 5 6 mph 1013.6mb 68f 76f
10:48 2 7 mph 1013.8mb 68f 78f
10:42 1 5 mph 1013.8mb 68f 78f
10:36 2 8 mph 1013.9mb 68f 78f
10:30 3 8 mph 1014mb 68f 78f
10:24 5 10 mph 1014.1mb 68f 77f
10:18 3 7 mph 1014.2mb 68f 76f
10:12 5 8 mph 1014.2mb 67f 76f
10:06 5 11 mph 1014.3mb 67f 76f
10:00 8 13 mph 1014.3mb 67f 76f
9:54 6 10 mph 1014.4mb 67f 75f
9:48 5 8 mph 1014.4mb 67f 75f
9:42 5 8 mph 1014.4mb 67f 75f
9:36 5 9 mph 1014.8mb 67f 75f
9:30 5 10 mph 1014.9mb 67f 76f
9:24 5 9 mph 1014.9mb 67f 75f
9:18 7 10 mph 1015mb 67f 74f
9:12 9 10 mph 1015mb 67f 74f
9:06 7 10 mph 1015mb 67f 74f
9:00 5 10 mph 1015mb 66f 74f
8:54 6 8 mph 1015mb 66f 74f
8:48 7 9 mph 1014.9mb 66f 73f
8:42 2 7 mph 1015mb 66f 73f
8:36 2 9 mph 1015mb 66f 72f
8:30 3 10 mph 1014.9mb 66f 72f
8:24 8 11 mph 1014.8mb 66f 71f
8:18 9 14 mph 1014.8mb 66f 71f
8:12 8 13 mph 1014.9mb 66f 71f
8:06 7 11 mph 1014.9mb 66f 70f
8:00 7 11 mph 1014.9mb 66f 70f
7:54 7 10 mph 1014.8mb 66f 70f
7:48 5 10 mph 1014.8mb 66f 70f
7:42 8 11 mph 1014.8mb 66f 70f
7:36 7 10 mph 1014.7mb 66f 70f
7:30 7 11 mph 1014.6mb 66f 69f
7:24 10 15 mph 1014.7mb 66f 68f
7:18 10 15 mph 1014.7mb 66f 68f
7:12 10 15 mph 1014.7mb 66f 68f
7:06 9 11 mph 1014.6mb 66f 68f
7:00 5 9 mph 1014.6mb 66f 67f
6:54 7 9 mph 1014.7mb 66f 67f
6:48 6 10 mph 1014.7mb 66f 67f
6:42 6 11 mph 1014.6mb 66f 66f
6:36 9 13 mph 1014.5mb 66f 66f
6:30 7 11 mph 1014.5mb 66f 66f
6:24 5 7 mph 1014.4mb 66f 66f
6:18 5 7 mph 1014.3mb 66f 65f
6:12 2 6 mph 1014.3mb 66f 65f
6:06 3 7 mph 1014.3mb 66f 65f
6:00 5 7 mph 1014.2mb 66f 65f
5:54 6 7 mph 1014.3mb 66f 65f
5:48 7 9 mph 1014.2mb 66f 65f
5:42 3 6 mph 1014.1mb 66f 65f
5:36 5 8 mph 1014.1mb 66f 65f
5:30 6 7 mph 1014mb 66f 64f
5:24 5 7 mph 1013.9mb 66f 64f
5:18 6 8 mph 1013.8mb 66f 64f
5:12 6 7 mph 1013.8mb 66f 65f
5:06 6 9 mph 1013.7mb 66f 65f
5:00 8 10 mph 1013.7mb 67f 65f
4:54 7 9 mph 1013.6mb 67f 65f
4:48 6 8 mph - - -
4:42 7 9 mph 1013.5mb 67f 65f
4:36 6 7 mph 1013.5mb 67f 66f
4:30 5 8 mph 1013.5mb 67f 66f
4:24 5 7 mph 1013.5mb 67f 66f
4:18 5 7 mph 1013.4mb 67f 66f
4:12 6 8 mph 1013.4mb 67f 65f
4:06 5 8 mph 1013.4mb 67f 66f
4:00 6 8 mph 1013.3mb 67f 66f
3:54 6 7 mph 1013.4mb 67f 65f
3:48 5 7 mph 1013.3mb 67f 65f
3:42 6 7 mph 1013.2mb 67f 66f
3:36 5 8 mph 1013mb 67f 66f
3:30 5 7 mph 1012.9mb 68f 66f
3:24 3 11 mph 1013mb 68f 67f
3:18 6 9 mph 1012.9mb 69f 67f
3:12 5 7 mph 1012.9mb 69f 67f
3:06 5 9 mph 1012.9mb 69f 67f
3:00 7 10 mph 1012.8mb 69f 67f
2:54 5 8 mph 1012.8mb 69f 67f
2:48 6 8 mph 1012.7mb - -
2:42 6 9 mph 1012.7mb - -
2:36 7 11 mph 1012.7mb - -
2:30 7 9 mph 1012.6mb 70f 68f
2:24 5 10 mph 1012.7mb 70f 69f
2:18 7 14 mph 1012.7mb 70f 69f
2:12 7 9 mph 1012.8mb 70f 69f
2:06 7 9 mph 1012.8mb 70f 69f
2:00 8 13 mph 1012.8mb 70f 69f
1:54 9 11 mph 1012.8mb 70f 69f
1:48 8 9 mph 1012.8mb 70f -
1:42 8 11 mph 1012.8mb 70f -
1:36 6 11 mph 1012.7mb 70f -
1:30 7 8 mph 1012.7mb 70f 69f
1:24 6 10 mph 1012.7mb 70f 69f
1:18 7 9 mph - - -
1:12 7 9 mph 1012.7mb 70f 69f
1:06 5 8 mph 1012.7mb 70f 69f
1:00 6 8 mph 1012.6mb 70f 69f
12:54 6 7 mph 1012.6mb 70f 70f
12:48 6 8 mph 1012.6mb 70f 70f
12:42 3 6 mph 1012.6mb 70f 70f
12:36 3 10 mph 1012.6mb 70f 70f
12:30 5 7 mph 1012.6mb 70f 70f
12:24 5 7 mph 1012.5mb 70f 70f
12:18 5 7 mph 1012.5mb 70f 71f
12:12 6 8 mph 1012.5mb 70f 71f
12:06 5 8 mph 1012.6mb 70f 71f
12:00 5 8 mph 1012.6mb 70f 72f
mié 06/21 11:54 5 8 mph 1012.5mb 70f 72f
11:48 6 13 mph 1012.5mb - -
11:42 7 8 mph 1012.4mb 70f 72f
11:36 6 8 mph 1012.5mb 70f 72f
11:30 3 6 mph 1012.4mb 70f 73f
11:24 3 5 mph 1012.3mb 69f 73f
11:18 5 6 mph 1012.2mb 69f 73f
11:12 5 7 mph 1012.2mb 69f 73f
11:06 3 7 mph 1012.1mb 69f 73f
11:00 5 7 mph 1012.1mb 69f 73f
10:54 6 8 mph 1012mb 69f 73f
10:48 5 7 mph 1012.1mb 69f 73f
10:42 3 6 mph 1012mb 69f 73f
10:36 3 6 mph 1012mb 69f 73f
10:30 5 6 mph 1012.1mb 69f 74f
10:24 5 6 mph 1012mb 69f 74f
10:18 3 6 mph 1012mb - -
10:12 5 6 mph 1011.8mb 69f 74f
10:06 6 7 mph 1011.8mb 68f 74f
10:00 5 8 mph 1011.7mb 68f 74f
9:54 6 8 mph 1011.7mb 68f 73f
9:48 6 8 mph 1011.6mb 68f 74f
9:42 7 8 mph 1011.5mb 68f 74f
9:36 7 9 mph 1011.4mb 68f 74f
9:30 7 9 mph 1011.4mb 68f 74f
9:24 9 10 mph 1011.3mb 68f 74f
9:18 7 9 mph 1011.2mb 67f 75f
9:12 6 9 mph 1011.1mb 67f 76f
9:06 6 8 mph 1011mb 67f 76f
9:00 6 6 mph 1010.9mb 67f 76f
8:54 5 6 mph 1010.9mb 67f 77f
8:48 3 8 mph 1010.7mb - -